Observation data for Saint Lawrence on 04/24/2019      Previous  Date       Current Mesonet Observations  Soil Data  Daily Summary Page  Observations in Plain Language
KST1 240500Z 05010KT 14/14 A2997 RMK A01 T01400137  RH  100%=      5-min Rain = 0.02
KST1 240505Z 05014KT 14/14 A2995 RMK A01 T01390136  RH  100%=      5-min Rain = 0.01
KST1 240510Z 06016KT 14/14 A2994 RMK A01 T01390136  RH  100%=      5-min Rain = 0
KST1 240515Z 07017G22KT 14/14 A2993 RMK A01 T01390136  RH  100%=      5-min Rain = 0.01
KST1 240520Z 08014KT 14/14 A2995 RMK A01 T01390136  RH  100%=      5-min Rain = 0
KST1 240525Z 09013KT 14/14 A2995 RMK A01 T01400137  RH  100%=      5-min Rain = 0
KST1 240530Z 10012G17KT 14/14 A2996 RMK A01 T01410138  RH  100%=      5-min Rain = 0
KST1 240535Z 10012G18KT 14/14 A2996 RMK A01 T01410138  RH  100%=      5-min Rain = 0.01
KST1 240540Z 09013G18KT 14/14 A2995 RMK A01 T01410138  RH  100%=      5-min Rain = 0
KST1 240545Z 08013G18KT 14/14 A2993 RMK A01 T01400137  RH  100%=      5-min Rain = 0
KST1 240550Z 11008KT 14/14 A2996 RMK A01 T01410138  RH  100%=      5-min Rain = 0
KST1 240555Z 15006KT 14/14 A2998 RMK A01 T01420139  RH  100%=      5-min Rain = 0
KST1 240600Z 14005KT 14/14 A2998 RMK A01 T01420139  RH  100%=      5-min Rain = 0
KST1 240605Z 15004KT 14/14 A2998 RMK A01 T01430139  RH  100%=      5-min Rain = 0
KST1 240610Z 13004KT 14/14 A2997 RMK A01 T01430140  RH  100%=      5-min Rain = 0
KST1 240615Z 08005KT 14/14 A2995 RMK A01 T01420139  RH  100%=      5-min Rain = 0.01
KST1 240620Z 04006KT 14/14 A2995 RMK A01 T01420139  RH  100%=      5-min Rain = 0
KST1 240625Z 05005KT 14/14 A2996 RMK A01 T01420139  RH  100%=      5-min Rain = 0
KST1 240630Z 04004KT 14/14 A2997 RMK A01 T01430140  RH  100%=      5-min Rain = 0
KST1 240635Z 08003KT 14/14 A2997 RMK A01 T01430140  RH  100%=      5-min Rain = 0
KST1 240640Z 08007KT 14/14 A2997 RMK A01 T01440141  RH  100%=      5-min Rain = 0
KST1 240645Z 06007G12KT 14/14 A2997 RMK A01 T01430140  RH  100%=      5-min Rain = 0
KST1 240650Z 07005KT 14/14 A2998 RMK A01 T01430140  RH  100%=      5-min Rain = 0
KST1 240655Z 06006KT 14/14 A2998 RMK A01 T01430140  RH  100%=      5-min Rain = 0.02
KST1 240700Z 06008KT 14/14 A2997 RMK A01 T01420139  RH  100%=      5-min Rain = 0.01
KST1 240705Z 06007KT 14/14 A2996 RMK A01 T01420139  RH  100%=      5-min Rain = 0.02
KST1 240710Z 06008KT 14/14 A2997 RMK A01 T01410138  RH  100%=      5-min Rain = 0
KST1 240715Z 05007KT 14/14 A2996 RMK A01 T01420139  RH  100%=      5-min Rain = 0
KST1 240720Z 04008KT 14/14 A2996 RMK A01 T01410138  RH  100%=      5-min Rain = 0
KST1 240725Z 05009KT 14/14 A2995 RMK A01 T01410138  RH  100%=      5-min Rain = 0
KST1 240730Z 04011KT 14/14 A2994 RMK A01 T01410138  RH  100%=      5-min Rain = 0
KST1 240735Z 03010KT 14/14 A2994 RMK A01 T01410138  RH  100%=      5-min Rain = 0
KST1 240740Z 01007KT 14/14 A2995 RMK A01 T01410138  RH  100%=      5-min Rain = 0
KST1 240745Z 36008KT 14/14 A2995 RMK A01 T01400137  RH  100%=      5-min Rain = 0
KST1 240750Z 35010KT 14/14 A2995 RMK A01 T01380135  RH  100%=      5-min Rain = 0.01
KST1 240755Z 35009KT 14/14 A2995 RMK A01 T01380135  RH  100%=      5-min Rain = 0
KST1 240800Z 36009KT 14/13 A2995 RMK A01 T01370134  RH  100%=      5-min Rain = 0
KST1 240805Z 01006KT 14/13 A2996 RMK A01 T01370134  RH  100%=      5-min Rain = 0
KST1 240810Z 02006KT 14/13 A2996 RMK A01 T01360133  RH  100%=      5-min Rain = 0
KST1 240815Z 03007KT 14/13 A2996 RMK A01 T01360133  RH  100%=      5-min Rain = 0
KST1 240820Z 03005KT 14/13 A2996 RMK A01 T01360134  RH  100%=      5-min Rain = 0
KST1 240825Z 02007KT 14/13 A2995 RMK A01 T01360133  RH  100%=      5-min Rain = 0
KST1 240830Z 02007KT 14/13 A2995 RMK A01 T01360133  RH  100%=      5-min Rain = 0
KST1 240835Z 03007KT 14/13 A2995 RMK A01 T01350133  RH  100%=      5-min Rain = 0
KST1 240840Z 03005KT 14/13 A2995 RMK A01 T01350132  RH  100%=      5-min Rain = 0
KST1 240845Z 02006KT 14/13 A2995 RMK A01 T01350132  RH  100%=      5-min Rain = 0.01
KST1 240850Z 02007KT 14/13 A2995 RMK A01 T01350133  RH  100%=      5-min Rain = 0
KST1 240855Z 02008KT 14/13 A2995 RMK A01 T01350132  RH  100%=      5-min Rain = 0
KST1 240900Z 01008KT 14/13 A2995 RMK A01 T01350132  RH  100%=      5-min Rain = 0
KST1 240905Z 01008KT 14/13 A2994 RMK A01 T01350132  RH  100%=      5-min Rain = 0
KST1 240910Z 01010KT 14/13 A2994 RMK A01 T01350132  RH  100%=      5-min Rain = 0
KST1 240915Z 01011KT 13/13 A2993 RMK A01 T01340131  RH  100%=      5-min Rain = 0
KST1 240920Z 02010KT 13/13 A2993 RMK A01 T01330130  RH  100%=      5-min Rain = 0
KST1 240925Z 02009KT 13/13 A2993 RMK A01 T01320129  RH  100%=      5-min Rain = 0
KST1 240930Z 03008KT 13/13 A2994 RMK A01 T01320129  RH  100%=      5-min Rain = 0
KST1 240935Z 03007KT 13/13 A2993 RMK A01 T01320129  RH  100%=      5-min Rain = 0
KST1 240940Z 03007KT 13/13 A2993 RMK A01 T01320130  RH  100%=      5-min Rain = 0
KST1 240945Z 02007KT 13/13 A2993 RMK A01 T01320130  RH  100%=      5-min Rain = 0
KST1 240950Z 02008KT 13/13 A2993 RMK A01 T01320129  RH  100%=      5-min Rain = 0
KST1 240955Z 02008KT 13/13 A2993 RMK A01 T01320129  RH  100%=      5-min Rain = 0
KST1 241000Z 02007KT 13/13 A2992 RMK A01 T01330130  RH  100%=      5-min Rain = 0
KST1 241005Z 03007KT 13/13 A2992 RMK A01 T01330130  RH  100%=      5-min Rain = 0
KST1 241010Z 02009KT 13/13 A2992 RMK A01 T01330130  RH  100%=      5-min Rain = 0
KST1 241015Z 01009KT 13/13 A2992 RMK A01 T01330130  RH  100%=      5-min Rain = 0
KST1 241020Z 01010KT 13/13 A2992 RMK A01 T01330130  RH  100%=      5-min Rain = 0
KST1 241025Z 01009KT 13/13 A2992 RMK A01 T01330130  RH  100%=      5-min Rain = 0
KST1 241030Z 02010KT 13/13 A2993 RMK A01 T01320129  RH  100%=      5-min Rain = 0
KST1 241035Z 02010KT 13/13 A2993 RMK A01 T01320129  RH  100%=      5-min Rain = 0
KST1 241040Z 03010KT 13/13 A2993 RMK A01 T01320129  RH  100%=      5-min Rain = 0
KST1 241045Z 03011KT 13/13 A2993 RMK A01 T01310128  RH  100%=      5-min Rain = 0
KST1 241050Z 03012KT 13/13 A2993 RMK A01 T01310128  RH  100%=      5-min Rain = 0
KST1 241055Z 03011KT 13/13 A2993 RMK A01 T01310129  RH  100%=      5-min Rain = 0
KST1 241100Z 02011KT 13/13 A2993 RMK A01 T01310128  RH  100%=      5-min Rain = 0
KST1 241105Z 02011KT 13/13 A2994 RMK A01 T01310128  RH  100%=      5-min Rain = 0
KST1 241110Z 01010KT 13/13 A2995 RMK A01 T01310128  RH  100%=      5-min Rain = 0
KST1 241115Z 01009KT 13/13 A2995 RMK A01 T01310128  RH  100%=      5-min Rain = 0
KST1 241120Z 03012G17KT 13/13 A2993 RMK A01 T01300128  RH  100%=      5-min Rain = 0.02
KST1 241125Z 03015KT 13/13 A299 RMK A01 T01290127  RH  100%=      5-min Rain = 0.03
KST1 241130Z 03013G18KT 13/13 A299 RMK A01 T01290127  RH  100%=      5-min Rain = 0.01
KST1 241135Z 03011KT 13/13 A2991 RMK A01 T01290127  RH  100%=      5-min Rain = 0
KST1 241140Z 03012KT 13/13 A2991 RMK A01 T01290126  RH  100%=      5-min Rain = 0
KST1 241145Z 03013KT 13/13 A2991 RMK A01 T01290126  RH  100%=      5-min Rain = 0
KST1 241150Z 03011G16KT 13/13 A2991 RMK A01 T01290126  RH  100%=      5-min Rain = 0
KST1 241155Z 03012KT 13/13 A2992 RMK A01 T01280125  RH  100%=      5-min Rain = 0
KST1 241200Z 03013KT 13/13 A2992 RMK A01 T01280125  RH  100%=      5-min Rain = 0
KST1 241205Z 02013G18KT 13/13 A2991 RMK A01 T01280125  RH  100%=      5-min Rain = 0
KST1 241210Z 02016G21KT 13/13 A299 RMK A01 T01280125  RH  100%=      5-min Rain = 0
KST1 241215Z 02017KT 13/13 A299 RMK A01 T01270125  RH  100%=      5-min Rain = 0
KST1 241220Z 03015G21KT 13/13 A299 RMK A01 T01280125  RH  100%=      5-min Rain = 0
KST1 241225Z 04012G18KT 13/13 A2992 RMK A01 T01280125  RH  100%=      5-min Rain = 0
KST1 241230Z 04011KT 13/13 A2993 RMK A01 T01280125  RH  100%=      5-min Rain = 0
KST1 241235Z 04010G15KT 13/13 A2994 RMK A01 T01280125  RH  100%=      5-min Rain = 0
KST1 241240Z 04011G16KT 13/13 A2994 RMK A01 T01280125  RH  100%=      5-min Rain = 0
KST1 241245Z 05011KT 13/13 A2994 RMK A01 T01280125  RH  100%=      5-min Rain = 0
KST1 241250Z 05012KT 13/13 A2994 RMK A01 T01280125  RH  100%=      5-min Rain = 0.01
KST1 241255Z 06009KT 13/13 A2995 RMK A01 T01280125  RH  100%=      5-min Rain = 0
KST1 241300Z 06008KT 13/13 A2995 RMK A01 T01280125  RH  100%=      5-min Rain = 0.01
KST1 241305Z 05010KT 13/13 A2994 RMK A01 T01280125  RH  100%=      5-min Rain = 0
KST1 241310Z 05010KT 13/13 A2993 RMK A01 T01290126  RH  100%=      5-min Rain = 0
KST1 241315Z 04010KT 13/13 A2994 RMK A01 T01280126  RH  100%=      5-min Rain = 0.01
KST1 241320Z 04010KT 13/13 A2994 RMK A01 T01290126  RH  100%=      5-min Rain = 0
KST1 241325Z 03010KT 13/13 A2994 RMK A01 T01280126  RH  100%=      5-min Rain = 0
KST1 241330Z 04010KT 13/13 A2993 RMK A01 T01280125  RH  100%=      5-min Rain = 0
KST1 241335Z 04010KT 13/12 A2993 RMK A01 T01270124  RH  100%=      5-min Rain = 0
KST1 241340Z 04010KT 13/12 A2993 RMK A01 T01270124  RH  100%=      5-min Rain = 0.01
KST1 241345Z 03008KT 13/12 A2994 RMK A01 T01270124  RH  100%=      5-min Rain = 0
KST1 241350Z 02010KT 13/12 A2994 RMK A01 T01270124  RH  100%=      5-min Rain = 0
KST1 241355Z 01010KT 13/12 A2995 RMK A01 T01270124  RH  100%=      5-min Rain = 0
KST1 241400Z 01010KT 13/12 A2995 RMK A01 T01270124  RH  100%=      5-min Rain = 0
KST1 241405Z 35010KT 13/12 A2996 RMK A01 T01270124  RH  100%=      5-min Rain = 0.01
KST1 241410Z 34012KT 13/12 A2996 RMK A01 T01270124  RH  100%=      5-min Rain = 0.01
KST1 241415Z 33014KT 13/12 A2997 RMK A01 T01270124  RH  100%=      5-min Rain = 0.01
KST1 241420Z 33012KT 13/12 A2997 RMK A01 T01260124  RH  100%=      5-min Rain = 0.02
KST1 241425Z 33011KT 13/12 A2998 RMK A01 T01270124  RH  100%=      5-min Rain = 0.01
KST1 241430Z 32010KT 13/12 A2998 RMK A01 T01270124  RH  100%=      5-min Rain = 0.01
KST1 241435Z 31010KT 13/12 A2998 RMK A01 T01270124  RH  100%=      5-min Rain = 0.02
KST1 241440Z 30010KT 13/12 A2998 RMK A01 T01260123  RH  100%=      5-min Rain = 0.02
KST1 241445Z 30011KT 13/12 A2998 RMK A01 T01260123  RH  100%=      5-min Rain = 0.02
KST1 241450Z 30009KT 13/12 A2999 RMK A01 T01270124  RH  100%=      5-min Rain = 0.02
KST1 241455Z 30010KT 13/12 A2999 RMK A01 T01260124  RH  100%=      5-min Rain = 0.02
KST1 241500Z 30010KT 13/12 A2999 RMK A01 T01260124  RH  100%=      5-min Rain = 0.02
KST1 241505Z 31008KT 13/12 A2999 RMK A01 T01260124  RH  100%=      5-min Rain = 0.02
KST1 241510Z 30009KT 13/12 A2998 RMK A01 T01260124  RH  100%=      5-min Rain = 0.02
KST1 241515Z 29011KT 13/12 A2999 RMK A01 T01260124  RH  100%=      5-min Rain = 0.02
KST1 241520Z 29012KT 13/12 A30 RMK A01 T01270124  RH  100%=      5-min Rain = 0.01
KST1 241525Z 28011KT 13/12 A2999 RMK A01 T01260123  RH  100%=      5-min Rain = 0.02
KST1 241530Z 28011KT 13/12 A2999 RMK A01 T01260124  RH  100%=      5-min Rain = 0.02
KST1 241535Z 27011KT 13/12 A2999 RMK A01 T01270124  RH  100%=      5-min Rain = 0.01
KST1 241540Z 28011KT 13/12 A2999 RMK A01 T01270124  RH  100%=      5-min Rain = 0.02
KST1 241545Z 28010KT 13/13 A30 RMK A01 T01280125  RH  100%=      5-min Rain = 0
KST1 241550Z 27010KT 13/13 A30 RMK A01 T01270125  RH  100%=      5-min Rain = 0.01
KST1 241555Z 26009KT 13/13 A30 RMK A01 T01270125  RH  100%=      5-min Rain = 0
KST1 241600Z 27008KT 13/13 A30 RMK A01 T01280125  RH  100%=      5-min Rain = 0.01
KST1 241605Z 27008KT 13/12 A30 RMK A01 T01270124  RH  100%=      5-min Rain = 0
KST1 241610Z 27007KT 13/13 A30 RMK A01 T01280125  RH  100%=      5-min Rain = 0
KST1 241615Z 27008KT 13/13 A3001 RMK A01 T01280125  RH  100%=      5-min Rain = 0.01
KST1 241620Z 26009KT 13/13 A3001 RMK A01 T01280125  RH  100%=      5-min Rain = 0
KST1 241625Z 27009KT 13/13 A3001 RMK A01 T01280126  RH  100%=      5-min Rain = 0.01
KST1 241630Z 28008KT 13/13 A3002 RMK A01 T01290126  RH  100%=      5-min Rain = 0
KST1 241635Z 28008KT 13/13 A3002 RMK A01 T01290126  RH  100%=      5-min Rain = 0.01
KST1 241640Z 28008KT 13/13 A3003 RMK A01 T01290126  RH  100%=      5-min Rain = 0
KST1 241645Z 28007KT 13/13 A3003 RMK A01 T01290126  RH  100%=      5-min Rain = 0.01
KST1 241650Z 28007KT 13/13 A3003 RMK A01 T01290126  RH  100%=      5-min Rain = 0.01
KST1 241655Z 28007KT 13/13 A3003 RMK A01 T01290126  RH  100%=      5-min Rain = 0
KST1 241700Z 29007KT 13/13 A3002 RMK A01 T01300128  RH  100%=      5-min Rain = 0.01
KST1 241705Z 28007KT 13/13 A3002 RMK A01 T01300127  RH  100%=      5-min Rain = 0
KST1 241710Z 28008KT 13/13 A3001 RMK A01 T01310128  RH  100%=      5-min Rain = 0
KST1 241715Z 28007KT 13/13 A30 RMK A01 T01300127  RH  100%=      5-min Rain = 0
KST1 241720Z 27007KT 13/13 A2999 RMK A01 T01310128  RH  100%=      5-min Rain = 0.01
KST1 241725Z 29008KT 13/13 A2999 RMK A01 T01310128  RH  100%=      5-min Rain = 0
KST1 241730Z 29010KT 13/13 A2999 RMK A01 T01320129  RH  100%=      5-min Rain = 0
KST1 241735Z 29010KT 13/13 A2999 RMK A01 T01320130  RH  100%=      5-min Rain = 0
KST1 241740Z 29009KT 13/13 A2999 RMK A01 T01320130  RH  100%=      5-min Rain = 0
KST1 241745Z 28009KT 13/13 A2999 RMK A01 T01330130  RH  100%=      5-min Rain = 0
KST1 241750Z 28010KT 14/13 A30 RMK A01 T01350132  RH  100%=      5-min Rain = 0
KST1 241755Z 28011KT 13/13 A2999 RMK A01 T01340131  RH  100%=      5-min Rain = 0.01
KST1 241800Z 27010KT 13/13 A2998 RMK A01 T01330130  RH  100%=      5-min Rain = 0.01
KST1 241805Z 27010KT 13/13 A2998 RMK A01 T01330130  RH  100%=      5-min Rain = 0
KST1 241810Z 27011KT 13/13 A2997 RMK A01 T01330130  RH  100%=      5-min Rain = 0.02
KST1 241815Z 28011KT 13/13 A2996 RMK A01 T01330130  RH  100%=      5-min Rain = 0.01
KST1 241820Z 27009KT 13/13 A2996 RMK A01 T01340131  RH  100%=      5-min Rain = 0
KST1 241825Z 27007KT 14/13 A2996 RMK A01 T01360133  RH  100%=      5-min Rain = 0.01
KST1 241830Z 26008KT 14/14 A2996 RMK A01 T01400136  RH  100%=      5-min Rain = 0
KST1 241835Z 24008KT 14/14 A2996 RMK A01 T01420135  RH  098%=      5-min Rain = 0.01
KST1 241840Z 25008KT 15/13 A2996 RMK A01 T01450133  RH  094%=      5-min Rain = 0
KST1 241845Z 25010KT 15/12 A2996 RMK A01 T01490124  RH  087%=      5-min Rain = 0
KST1 241850Z 25007KT 15/12 A2995 RMK A01 T01510117  RH  081%=      5-min Rain = 0
KST1 241855Z 26005KT 15/12 A2995 RMK A01 T01510117  RH  082%=      5-min Rain = 0.01
KST1 241900Z 29002KT 15/12 A2994 RMK A01 T01530115  RH  079%=      5-min Rain = 0
KST1 241905Z 27002KT 16/11 A2993 RMK A01 T01560111  RH  076%=      5-min Rain = 0
KST1 241910Z 25002KT 16/11 A2993 RMK A01 T01600111  RH  074%=      5-min Rain = 0
KST1 241915Z 24003KT 16/11 A2993 RMK A01 T01620110  RH  073%=      5-min Rain = 0
KST1 241920Z 26004KT 16/11 A2994 RMK A01 T01630110  RH  072%=      5-min Rain = 0
KST1 241925Z 00010G17KT 16/13 A2995 RMK A01 T01610127  RH  082%=      5-min Rain = 0
KST1 241930Z 01013KT 15/14 A2994 RMK A01 T01450135  RH  096%=      5-min Rain = 0
KST1 241935Z 01013KT 14/14 A2994 RMK A01 T01440139  RH  099%=      5-min Rain = 0
KST1 241940Z 00012KT 14/14 A2995 RMK A01 T01440140  RH  099%=      5-min Rain = 0
KST1 241945Z 35008KT 15/14 A2995 RMK A01 T01470143  RH  099%=      5-min Rain = 0
KST1 241950Z 00010KT 15/14 A2994 RMK A01 T01460141  RH  099%=      5-min Rain = 0
KST1 241955Z 00011KT 15/14 A2994 RMK A01 T01470141  RH  098%=      5-min Rain = 0
KST1 242000Z 36013KT 15/14 A2992 RMK A01 T01470142  RH  098%=      5-min Rain = 0
KST1 242005Z 36011KT 15/14 A2993 RMK A01 T01470140  RH  097%=      5-min Rain = 0
KST1 242010Z 00012KT 15/14 A2991 RMK A01 T01480140  RH  097%=      5-min Rain = 0
KST1 242015Z 36013KT 15/14 A2992 RMK A01 T01480138  RH  096%=      5-min Rain = 0
KST1 242020Z 00011KT 15/14 A2991 RMK A01 T01490138  RH  096%=      5-min Rain = 0
KST1 242025Z 01012KT 15/14 A2991 RMK A01 T01490139  RH  096%=      5-min Rain = 0
KST1 242030Z 02009KT 15/14 A2991 RMK A01 T01500141  RH  096%=      5-min Rain = 0
KST1 242035Z 01009KT 15/14 A2992 RMK A01 T01500140  RH  096%=      5-min Rain = 0
KST1 242040Z 01009KT 15/14 A2992 RMK A01 T01500140  RH  095%=      5-min Rain = 0
KST1 242045Z 01007KT 15/14 A2992 RMK A01 T01500137  RH  094%=      5-min Rain = 0
KST1 242050Z 01007KT 15/14 A2992 RMK A01 T01510137  RH  093%=      5-min Rain = 0
KST1 242055Z 00006KT 15/14 A2992 RMK A01 T01540136  RH  091%=      5-min Rain = 0
KST1 242100Z 01007KT 16/14 A2992 RMK A01 T01570139  RH  091%=      5-min Rain = 0
KST1 242105Z 01005KT 16/14 A2992 RMK A01 T01580136  RH  089%=      5-min Rain = 0
KST1 242110Z 01005G11KT 16/14 A2992 RMK A01 T01590135  RH  088%=      5-min Rain = 0
KST1 242115Z 01008KT 16/14 A2992 RMK A01 T01590138  RH  089%=      5-min Rain = 0
KST1 242120Z 35008KT 16/14 A2992 RMK A01 T01580136  RH  088%=      5-min Rain = 0
KST1 242125Z 34005KT 16/13 A2992 RMK A01 T01590134  RH  087%=      5-min Rain = 0
KST1 242130Z 36005KT 16/14 A2992 RMK A01 T01600138  RH  088%=      5-min Rain = 0
KST1 242135Z 01005KT 16/14 A2992 RMK A01 T01560135  RH  089%=      5-min Rain = 0
KST1 242140Z 36007KT 15/13 A2993 RMK A01 T01530134  RH  090%=      5-min Rain = 0
KST1 242145Z 01006KT 15/14 A2993 RMK A01 T01520135  RH  091%=      5-min Rain = 0
KST1 242150Z 01008KT 15/13 A2993 RMK A01 T01520134  RH  091%=      5-min Rain = 0
KST1 242155Z 35007KT 15/13 A2993 RMK A01 T01520133  RH  090%=      5-min Rain = 0
KST1 242200Z 00006KT 15/13 A2993 RMK A01 T01540134  RH  090%=      5-min Rain = 0
KST1 242205Z 35005KT 16/13 A2993 RMK A01 T01550132  RH  088%=      5-min Rain = 0
KST1 242210Z 34006KT 16/13 A2993 RMK A01 T01570132  RH  086%=      5-min Rain = 0
KST1 242215Z 35006KT 16/13 A2993 RMK A01 T01570131  RH  086%=      5-min Rain = 0
KST1 242220Z 36006KT 16/13 A2992 RMK A01 T01550133  RH  089%=      5-min Rain = 0
KST1 242225Z 02007KT 15/13 A2992 RMK A01 T01520133  RH  090%=      5-min Rain = 0
KST1 242230Z 00006KT 15/13 A2992 RMK A01 T01520133  RH  090%=      5-min Rain = 0
KST1 242235Z 00007KT 15/13 A2993 RMK A01 T01530132  RH  089%=      5-min Rain = 0
KST1 242240Z 36005KT 15/13 A2993 RMK A01 T01520133  RH  090%=      5-min Rain = 0
KST1 242245Z 35005KT 15/13 A2993 RMK A01 T01520132  RH  090%=      5-min Rain = 0
KST1 242250Z 00006KT 15/13 A2993 RMK A01 T01530132  RH  089%=      5-min Rain = 0
KST1 242255Z 01006KT 15/13 A2993 RMK A01 T01530130  RH  088%=      5-min Rain = 0
KST1 242300Z 36007KT 15/13 A2993 RMK A01 T01520127  RH  086%=      5-min Rain = 0
KST1 242305Z 35007KT 15/13 A2993 RMK A01 T01520129  RH  088%=      5-min Rain = 0
KST1 242310Z 36007KT 15/13 A2993 RMK A01 T01510130  RH  089%=      5-min Rain = 0
KST1 242315Z 00008KT 15/13 A2993 RMK A01 T01490132  RH  091%=      5-min Rain = 0.01
KST1 242320Z 01006KT 15/13 A2993 RMK A01 T01470133  RH  093%=      5-min Rain = 0
KST1 242325Z 01005KT 15/14 A2993 RMK A01 T01460135  RH  095%=      5-min Rain = 0
KST1 242330Z 02004KT 15/14 A2993 RMK A01 T01460137  RH  097%=      5-min Rain = 0
KST1 242335Z 02003KT 15/14 A2993 RMK A01 T01450137  RH  097%=      5-min Rain = 0
KST1 242340Z 02003KT 15/14 A2993 RMK A01 T01460138  RH  097%=      5-min Rain = 0
KST1 242345Z 06002KT 15/14 A2993 RMK A01 T01450138  RH  097%=      5-min Rain = 0.01
KST1 242350Z 08001KT 15/14 A2993 RMK A01 T01450136  RH  096%=      5-min Rain = 0
KST1 242355Z 10001KT 15/13 A2993 RMK A01 T01460133  RH  094%=      5-min Rain = 0
KST1 250000Z 13002KT 15/13 A2992 RMK A01 T01460130  RH  092%=      5-min Rain = 0
KST1 250005Z 13002KT 15/13 A2992 RMK A01 T01470128  RH  090%=      5-min Rain = 0
KST1 250010Z 14001KT 15/13 A2992 RMK A01 T01480127  RH  089%=      5-min Rain = 0
KST1 250015Z 17002KT 15/13 A2992 RMK A01 T01490126  RH  088%=      5-min Rain = 0
KST1 250020Z 15003KT 15/13 A2992 RMK A01 T01520127  RH  087%=      5-min Rain = 0
KST1 250025Z 14003KT 15/13 A2991 RMK A01 T01530129  RH  087%=      5-min Rain = 0
KST1 250030Z 14004KT 15/13 A2991 RMK A01 T01530129  RH  087%=      5-min Rain = 0
KST1 250035Z 16004KT 15/13 A2991 RMK A01 T01530128  RH  087%=      5-min Rain = 0
KST1 250040Z 17004KT 15/13 A2991 RMK A01 T01520128  RH  087%=      5-min Rain = 0
KST1 250045Z 17004KT 15/13 A2991 RMK A01 T01520129  RH  088%=      5-min Rain = 0
KST1 250050Z 16004KT 15/13 A2991 RMK A01 T01510128  RH  088%=      5-min Rain = 0
KST1 250055Z 16003KT 15/13 A2991 RMK A01 T01510129  RH  088%=      5-min Rain = 0
KST1 250100Z 15003KT 15/13 A2991 RMK A01 T01500128  RH  089%=      5-min Rain = 0
KST1 250105Z 14003KT 15/13 A2991 RMK A01 T01500131  RH  090%=      5-min Rain = 0
KST1 250110Z 14003KT 15/13 A2991 RMK A01 T01490132  RH  091%=      5-min Rain = 0
KST1 250115Z 14003KT 15/13 A2991 RMK A01 T01490134  RH  093%=      5-min Rain = 0
KST1 250120Z 16003KT 15/13 A2991 RMK A01 T01480134  RH  093%=      5-min Rain = 0
KST1 250125Z 17003KT 15/13 A2991 RMK A01 T01470134  RH  094%=      5-min Rain = 0
KST1 250130Z 17003KT 15/14 A2991 RMK A01 T01460136  RH  096%=      5-min Rain = 0
KST1 250135Z 16003KT 15/14 A2991 RMK A01 T01450138  RH  097%=      5-min Rain = 0
KST1 250140Z 17003KT 14/14 A2991 RMK A01 T01440138  RH  098%=      5-min Rain = 0
KST1 250145Z 19004KT 14/14 A2991 RMK A01 T01430138  RH  099%=      5-min Rain = 0
KST1 250150Z 19004KT 14/14 A2991 RMK A01 T01410135  RH  098%=      5-min Rain = 0
KST1 250155Z 20004KT 14/13 A2991 RMK A01 T01410133  RH  097%=      5-min Rain = 0
KST1 250200Z 20004KT 14/13 A2992 RMK A01 T01410134  RH  098%=      5-min Rain = 0
KST1 250205Z 21003KT 14/14 A2992 RMK A01 T01400135  RH  099%=      5-min Rain = 0
KST1 250210Z 23002KT 14/14 A2992 RMK A01 T01390135  RH  099%=      5-min Rain = 0
KST1 250215Z 24002KT 14/14 A2992 RMK A01 T01380135  RH  100%=      5-min Rain = 0
KST1 250220Z 24002KT 14/13 A2993 RMK A01 T01370134  RH  100%=      5-min Rain = 0
KST1 250225Z 23003KT 14/13 A2993 RMK A01 T01370134  RH  100%=      5-min Rain = 0
KST1 250230Z 23004KT 14/13 A2993 RMK A01 T01350132  RH  100%=      5-min Rain = 0
KST1 250235Z 23004KT 13/13 A2993 RMK A01 T01340131  RH  100%=      5-min Rain = 0
KST1 250240Z 23005KT 13/13 A2993 RMK A01 T01330130  RH  100%=      5-min Rain = 0
KST1 250245Z 23005KT 13/13 A2994 RMK A01 T01330130  RH  100%=      5-min Rain = 0
KST1 250250Z 22005KT 13/13 A2994 RMK A01 T01320130  RH  100%=      5-min Rain = 0
KST1 250255Z 22005KT 13/13 A2994 RMK A01 T01320129  RH  100%=      5-min Rain = 0
KST1 250300Z 22005KT 13/13 A2994 RMK A01 T01310128  RH  100%=      5-min Rain = 0
KST1 250305Z 22005KT 13/13 A2994 RMK A01 T01300127  RH  100%=      5-min Rain = 0
KST1 250310Z 23005KT 13/13 A2994 RMK A01 T01290126  RH  100%=      5-min Rain = 0
KST1 250315Z 23005KT 13/13 A2994 RMK A01 T01270125  RH  100%=      5-min Rain = 0
KST1 250320Z 23005KT 13/12 A2994 RMK A01 T01260123  RH  100%=      5-min Rain = 0
KST1 250325Z 22004KT 13/12 A2995 RMK A01 T01250123  RH  100%=      5-min Rain = 0
KST1 250330Z 22004KT 13/12 A2995 RMK A01 T01250122  RH  100%=      5-min Rain = 0
KST1 250335Z 21003KT 13/12 A2995 RMK A01 T01250122  RH  100%=      5-min Rain = 0
KST1 250340Z 21003KT 13/12 A2995 RMK A01 T01250122  RH  100%=      5-min Rain = 0
KST1 250345Z 21003KT 12/12 A2995 RMK A01 T01240121  RH  100%=      5-min Rain = 0
KST1 250350Z 21004KT 12/12 A2995 RMK A01 T01240121  RH  100%=      5-min Rain = 0
KST1 250355Z 21004KT 12/12 A2995 RMK A01 T01240121  RH  100%=      5-min Rain = 0
KST1 250400Z 20004KT 12/12 A2995 RMK A01 T01240121  RH  100%=      5-min Rain = 0
KST1 250405Z 20004KT 12/12 A2994 RMK A01 T01240121  RH  100%=      5-min Rain = 0
KST1 250410Z 19004KT 12/12 A2994 RMK A01 T01230121  RH  100%=      5-min Rain = 0
KST1 250415Z 20005KT 12/12 A2994 RMK A01 T01230120  RH  100%=      5-min Rain = 0
KST1 250420Z 20005KT 12/12 A2994 RMK A01 T01240121  RH  100%=      5-min Rain = 0
KST1 250425Z 19005KT 12/12 A2994 RMK A01 T01230121  RH  100%=      5-min Rain = 0
KST1 250430Z 19006KT 12/12 A2994 RMK A01 T01220119  RH  100%=      5-min Rain = 0
KST1 250435Z 19006KT 12/12 A2993 RMK A01 T01220119  RH  100%=      5-min Rain = 0
KST1 250440Z 20006KT 12/12 A2993 RMK A01 T01230120  RH  100%=      5-min Rain = 0
KST1 250445Z 20005KT 12/12 A2993 RMK A01 T01230121  RH  100%=      5-min Rain = 0
KST1 250450Z 20004KT 12/12 A2993 RMK A01 T01220120  RH  100%=      5-min Rain = 0
KST1 250455Z 22004KT 12/12 A2993 RMK A01 T01190117  RH  100%=      5-min Rain = 0

Page generated in 0.0087 seconds.